createdAt,value
2022-12-07T00:02:08.353Z,21.83
2022-12-07T00:04:35.394Z,21.83
2022-12-07T00:07:02.798Z,21.82
2022-12-07T00:09:29.537Z,21.82
2022-12-07T00:11:56.197Z,21.82
2022-12-07T00:14:22.926Z,21.84
2022-12-07T00:16:51.093Z,21.84
2022-12-07T00:19:18.058Z,21.83
2022-12-07T00:21:44.835Z,21.84
2022-12-07T00:24:12.207Z,21.85
2022-12-07T00:26:39.681Z,21.86
2022-12-07T00:29:10.709Z,21.85
2022-12-07T00:31:40.315Z,21.84
2022-12-07T00:34:07.743Z,21.83
2022-12-07T00:36:34.585Z,21.81
2022-12-07T00:39:02.002Z,21.82
2022-12-07T00:41:29.270Z,21.81
2022-12-07T00:43:56.388Z,21.80
2022-12-07T00:46:23.465Z,21.79
2022-12-07T00:48:50.655Z,21.78
2022-12-07T00:51:18.255Z,21.78
2022-12-07T00:53:45.070Z,21.72
2022-12-07T00:56:29.800Z,21.70
2022-12-07T00:59:00.607Z,21.64
2022-12-07T01:01:28.907Z,21.61
2022-12-07T01:03:55.792Z,21.58
2022-12-07T01:06:23.588Z,21.55
2022-12-07T01:08:50.749Z,21.54
2022-12-07T01:11:18.749Z,21.52
2022-12-07T01:13:45.772Z,21.49
2022-12-07T01:16:14.454Z,21.46
2022-12-07T01:18:41.428Z,21.45
2022-12-07T01:21:10.283Z,21.43
2022-12-07T01:23:37.107Z,21.41
2022-12-07T01:26:05.337Z,21.40
2022-12-07T01:28:32.329Z,21.35
2022-12-07T01:31:06.428Z,21.36
2022-12-07T01:33:34.804Z,21.30
2022-12-07T01:36:02.191Z,21.29
2022-12-07T01:38:29.122Z,21.29
2022-12-07T01:40:56.573Z,21.24
2022-12-07T01:43:24.757Z,21.19
2022-12-07T01:45:51.405Z,21.17
2022-12-07T01:48:20.011Z,21.17
2022-12-07T01:50:48.868Z,21.14
2022-12-07T01:53:16.145Z,21.09
2022-12-07T01:55:44.787Z,21.07
2022-12-07T01:58:12.451Z,21.03
2022-12-07T02:00:39.138Z,21.01
2022-12-07T02:03:19.581Z,20.97
2022-12-07T02:05:47.557Z,20.92
2022-12-07T02:08:14.796Z,20.94
2022-12-07T02:10:41.449Z,20.93
2022-12-07T02:13:11.343Z,20.94
2022-12-07T02:15:40.784Z,20.90
2022-12-07T02:18:16.581Z,20.87
2022-12-07T02:20:43.154Z,20.85
2022-12-07T02:23:24.800Z,20.81
2022-12-07T02:25:51.202Z,20.78
2022-12-07T02:31:32.437Z,20.76
2022-12-07T02:34:09.208Z,20.72
2022-12-07T02:36:41.748Z,20.70
2022-12-07T02:39:12.745Z,20.68
2022-12-07T02:41:44.012Z,20.63
2022-12-07T02:44:21.514Z,20.59
2022-12-07T02:46:51.962Z,20.60
2022-12-07T02:49:19.369Z,20.59
2022-12-07T02:51:47.312Z,20.56
2022-12-07T02:54:15.345Z,20.54
2022-12-07T02:56:44.792Z,20.52
2022-12-07T02:59:14.347Z,20.50
2022-12-07T03:01:59.687Z,20.48
2022-12-07T03:04:26.348Z,20.47
2022-12-07T03:06:57.803Z,20.53
2022-12-07T03:09:53.603Z,20.59
2022-12-07T03:12:23.169Z,20.59
2022-12-07T03:14:53.993Z,20.58
2022-12-07T03:17:27.972Z,20.55
2022-12-07T03:19:58.672Z,20.55
2022-12-07T03:22:31.953Z,20.49
2022-12-07T03:25:00.155Z,20.41
2022-12-07T03:27:30.093Z,20.37
2022-12-07T03:30:05.999Z,20.38
2022-12-07T03:32:38.366Z,20.31
2022-12-07T03:35:05.070Z,20.29
2022-12-07T03:37:37.439Z,20.25
2022-12-07T03:40:17.736Z,20.25
2022-12-07T03:42:44.734Z,20.23
2022-12-07T03:45:11.526Z,20.19
2022-12-07T03:47:52.032Z,20.17
2022-12-07T03:50:26.671Z,20.16
2022-12-07T03:52:56.513Z,20.12
2022-12-07T03:55:25.884Z,20.10
2022-12-07T03:57:55.508Z,20.09
2022-12-07T04:00:22.494Z,20.06
2022-12-07T04:02:52.308Z,20.04
2022-12-07T04:05:19.106Z,20.01
2022-12-07T04:07:45.738Z,20.02
2022-12-07T04:10:12.358Z,19.98
2022-12-07T04:12:38.997Z,19.95
2022-12-07T04:15:05.853Z,19.92
2022-12-07T04:17:32.529Z,19.92
2022-12-07T04:19:59.273Z,19.90
2022-12-07T04:22:28.843Z,19.88
2022-12-07T04:24:55.487Z,19.88
2022-12-07T04:27:22.248Z,19.83
2022-12-07T04:29:48.867Z,19.82
2022-12-07T04:32:15.593Z,19.81
2022-12-07T04:34:42.194Z,19.78
2022-12-07T04:37:15.987Z,19.75
2022-12-07T04:39:42.678Z,19.75
2022-12-07T04:42:09.655Z,19.72
2022-12-07T04:44:36.456Z,19.71
2022-12-07T04:47:03.142Z,19.69
2022-12-07T04:49:29.870Z,19.68
2022-12-07T04:51:56.523Z,19.66
2022-12-07T04:54:23.138Z,19.64
2022-12-07T04:56:49.779Z,19.60
2022-12-07T04:59:17.282Z,19.58
2022-12-07T05:01:44.392Z,19.57
2022-12-07T05:04:11.300Z,19.56
2022-12-07T05:06:38.041Z,19.55
2022-12-07T05:09:04.829Z,19.53
2022-12-07T05:11:40.937Z,19.52
2022-12-07T05:14:07.630Z,19.50
2022-12-07T05:16:34.259Z,19.48
2022-12-07T05:19:00.913Z,19.48
2022-12-07T05:21:27.610Z,19.46
2022-12-07T05:23:54.187Z,19.47
2022-12-07T05:26:20.802Z,19.52
2022-12-07T05:28:51.075Z,19.56
2022-12-07T05:31:17.840Z,19.59
2022-12-07T05:33:44.540Z,19.61
2022-12-07T05:36:11.118Z,19.61
2022-12-07T05:38:37.722Z,19.64
2022-12-07T05:41:05.274Z,19.65
2022-12-07T05:43:32.086Z,19.68
2022-12-07T05:45:59.161Z,19.71
2022-12-07T05:48:26.270Z,19.75
2022-12-07T05:50:53.188Z,19.77
2022-12-07T05:53:22.994Z,19.81
2022-12-07T05:55:50.146Z,19.84
2022-12-07T05:58:35.427Z,19.89
2022-12-07T06:01:02.108Z,19.94
2022-12-07T06:03:28.978Z,19.98
2022-12-07T06:05:55.745Z,20.03
2022-12-07T06:08:22.468Z,20.08
2022-12-07T06:11:09.147Z,20.12
2022-12-07T06:13:35.878Z,20.17
2022-12-07T06:16:02.901Z,20.21
2022-12-07T06:18:29.489Z,20.27
2022-12-07T06:20:56.150Z,20.30
2022-12-07T06:23:22.810Z,20.36
2022-12-07T06:25:49.481Z,20.39
2022-12-07T06:28:16.087Z,20.44
2022-12-07T06:30:42.712Z,20.49
2022-12-07T06:33:09.334Z,20.53
2022-12-07T06:35:36.000Z,20.57
2022-12-07T06:38:02.642Z,20.62
2022-12-07T06:40:29.250Z,20.66
2022-12-07T06:42:55.940Z,20.70
2022-12-07T06:45:22.548Z,20.74
2022-12-07T06:47:49.298Z,20.77
2022-12-07T06:50:16.001Z,20.81
2022-12-07T06:52:42.628Z,20.85
2022-12-07T06:55:09.293Z,20.89
2022-12-07T06:57:35.976Z,20.94
2022-12-07T07:00:03.572Z,20.97
2022-12-07T07:02:53.611Z,21.01
2022-12-07T07:05:22.864Z,21.07
2022-12-07T07:08:21.026Z,21.09
2022-12-07T07:10:39.066Z,21.15
2022-12-07T07:13:05.786Z,21.18
2022-12-07T07:15:33.009Z,21.22
2022-12-07T07:18:03.059Z,21.27
2022-12-07T07:20:34.268Z,21.29
2022-12-07T07:23:01.158Z,21.33
2022-12-07T07:25:27.786Z,21.36
2022-12-07T07:27:54.519Z,21.39
2022-12-07T07:30:21.227Z,21.41
2022-12-07T07:32:47.871Z,21.45
2022-12-07T07:35:15.265Z,21.47
2022-12-07T07:37:42.338Z,21.50
2022-12-07T07:40:09.818Z,21.52
2022-12-07T07:42:36.567Z,21.56
2022-12-07T07:45:03.352Z,21.58
2022-12-07T07:47:30.323Z,21.61
2022-12-07T07:49:56.944Z,21.64
2022-12-07T07:52:33.046Z,21.69
2022-12-07T07:54:59.683Z,21.71
2022-12-07T07:57:26.281Z,21.79
2022-12-07T07:59:53.426Z,21.78
2022-12-07T08:02:30.773Z,21.73
2022-12-07T08:04:57.885Z,21.67
2022-12-07T08:07:24.568Z,21.67
2022-12-07T08:09:51.179Z,21.67
2022-12-07T08:12:17.921Z,21.66
2022-12-07T08:14:44.543Z,21.63
2022-12-07T08:17:11.200Z,21.62
2022-12-07T08:19:38.069Z,21.60
2022-12-07T08:22:04.836Z,21.58
2022-12-07T08:24:31.590Z,21.56
2022-12-07T08:26:58.224Z,21.53
2022-12-07T08:29:24.848Z,21.52
2022-12-07T08:31:51.505Z,21.49
2022-12-07T08:34:18.363Z,21.48
2022-12-07T08:36:45.149Z,21.46
2022-12-07T08:41:58.665Z,21.48
2022-12-07T08:44:25.340Z,21.48
2022-12-07T08:46:58.074Z,21.46
2022-12-07T08:49:32.509Z,21.46
2022-12-07T08:51:59.114Z,21.46
2022-12-07T08:54:25.982Z,21.46
2022-12-07T08:56:58.671Z,21.47
2022-12-07T08:59:26.698Z,21.48
2022-12-07T09:01:53.782Z,21.48
2022-12-07T09:04:21.807Z,21.49
2022-12-07T09:06:49.044Z,21.49
2022-12-07T09:09:15.886Z,21.50
2022-12-07T09:11:42.536Z,21.50
2022-12-07T09:14:09.193Z,21.50
2022-12-07T09:16:35.907Z,21.51
2022-12-07T09:19:02.694Z,21.51
2022-12-07T09:21:29.421Z,21.52
2022-12-07T09:23:56.070Z,21.52
2022-12-07T09:26:22.738Z,21.52
2022-12-07T09:28:49.509Z,21.52
2022-12-07T09:31:25.185Z,21.52
2022-12-07T09:33:56.830Z,21.52
2022-12-07T09:36:23.545Z,21.50
2022-12-07T09:38:50.117Z,21.51
2022-12-07T09:41:17.423Z,21.51
2022-12-07T09:43:44.430Z,21.50
2022-12-07T09:46:14.391Z,21.50
2022-12-07T09:48:41.766Z,21.49
2022-12-07T09:51:22.480Z,21.48
2022-12-07T09:53:51.303Z,21.47
2022-12-07T09:56:18.859Z,21.46
2022-12-07T09:58:45.661Z,21.46
2022-12-07T10:01:16.713Z,21.44
2022-12-07T10:03:53.941Z,21.42
2022-12-07T10:06:20.636Z,21.40
2022-12-07T10:08:47.409Z,21.39
2022-12-07T10:11:15.948Z,21.37
2022-12-07T10:13:48.920Z,21.35
2022-12-07T10:16:34.914Z,21.35
2022-12-07T10:19:19.415Z,21.32
2022-12-07T10:22:04.654Z,21.30
2022-12-07T10:24:31.483Z,21.28
2022-12-07T10:26:58.315Z,21.27
2022-12-07T10:29:32.491Z,21.24
2022-12-07T10:32:00.472Z,21.22
2022-12-07T10:34:30.095Z,21.19
2022-12-07T10:37:18.350Z,21.19
2022-12-07T10:39:49.396Z,21.17
2022-12-07T10:42:28.207Z,21.13
2022-12-07T10:45:27.600Z,21.12
2022-12-07T10:47:57.072Z,21.09
2022-12-07T10:50:50.184Z,21.07
2022-12-07T10:53:35.331Z,21.04
2022-12-07T10:56:17.121Z,21.02
2022-12-07T10:58:46.752Z,20.99
2022-12-07T11:01:28.768Z,20.97
2022-12-07T11:04:14.294Z,20.94
2022-12-07T11:06:45.635Z,20.94
2022-12-07T11:10:07.346Z,20.90
2022-12-07T11:12:53.137Z,20.88
2022-12-07T11:15:26.124Z,20.83
2022-12-07T11:18:14.438Z,20.81
2022-12-07T11:20:41.038Z,20.80
2022-12-07T11:23:34.251Z,20.79
2022-12-07T11:26:19.739Z,20.80
2022-12-07T11:29:00.291Z,20.80
2022-12-07T11:31:29.422Z,20.80
2022-12-07T11:34:01.827Z,20.82
2022-12-07T11:36:43.080Z,20.83
2022-12-07T11:39:12.540Z,20.83
2022-12-07T11:41:42.194Z,20.84
2022-12-07T11:44:21.635Z,20.86
2022-12-07T11:46:58.734Z,20.88
2022-12-07T11:49:36.667Z,20.91
2022-12-07T11:52:05.231Z,20.92
2022-12-07T11:54:36.788Z,20.95
2022-12-07T11:57:06.021Z,20.96
2022-12-07T11:59:37.446Z,20.98
2022-12-07T12:02:38.729Z,21.00
2022-12-07T12:05:19.166Z,21.03
2022-12-07T12:10:43.255Z,21.08
2022-12-07T12:16:01.126Z,21.14
2022-12-07T12:18:32.638Z,21.16
2022-12-07T12:21:04.071Z,21.18
2022-12-07T12:23:57.861Z,21.20
2022-12-07T12:26:30.417Z,21.22
2022-12-07T12:29:06.407Z,21.24
2022-12-07T12:31:37.614Z,21.26
2022-12-07T12:34:06.983Z,21.27
2022-12-07T12:36:43.991Z,21.29
2022-12-07T12:39:16.209Z,21.30
2022-12-07T12:42:02.803Z,21.30
2022-12-07T12:44:35.556Z,21.32
2022-12-07T12:47:03.463Z,21.33
2022-12-07T12:49:30.149Z,21.34
2022-12-07T12:51:56.745Z,21.33
2022-12-07T12:54:23.347Z,21.34
2022-12-07T12:56:52.934Z,21.35
2022-12-07T12:59:22.561Z,21.35
2022-12-07T13:01:50.646Z,21.36
2022-12-07T13:04:25.358Z,21.38
2022-12-07T13:06:52.128Z,21.40
2022-12-07T13:09:20.667Z,21.41
2022-12-07T13:11:47.591Z,21.43
2022-12-07T13:14:33.897Z,21.45
2022-12-07T13:17:07.879Z,21.46
2022-12-07T13:19:43.655Z,21.47
2022-12-07T13:22:30.257Z,21.49
2022-12-07T13:25:12.215Z,21.50
2022-12-07T13:27:40.829Z,21.50
2022-12-07T13:30:19.066Z,21.51
2022-12-07T13:32:52.954Z,21.52
2022-12-07T13:35:38.612Z,21.52
2022-12-07T13:38:07.419Z,21.53
2022-12-07T13:40:34.090Z,21.53
2022-12-07T13:43:01.977Z,21.52
2022-12-07T13:45:49.681Z,21.51
2022-12-07T13:48:31.995Z,21.52
2022-12-07T13:50:59.388Z,21.51
2022-12-07T13:53:29.170Z,21.51
2022-12-07T13:55:56.127Z,21.49
2022-12-07T13:58:23.456Z,21.48
2022-12-07T14:00:50.500Z,21.49
2022-12-07T14:03:17.848Z,21.47
2022-12-07T14:05:45.423Z,21.48
2022-12-07T14:08:12.542Z,21.47
2022-12-07T14:10:42.083Z,21.47
2022-12-07T14:13:18.580Z,21.47
2022-12-07T14:15:45.399Z,21.46
2022-12-07T14:18:27.200Z,21.45
2022-12-07T14:21:03.695Z,21.45
2022-12-07T14:23:30.987Z,21.43
2022-12-07T14:26:14.865Z,21.44
2022-12-07T14:28:42.699Z,21.43
2022-12-07T14:31:23.719Z,21.43
2022-12-07T14:33:53.481Z,21.43
2022-12-07T14:36:20.362Z,21.44
2022-12-07T14:38:47.643Z,21.44
2022-12-07T14:41:25.484Z,21.44
2022-12-07T14:44:21.262Z,21.45
2022-12-07T14:46:39.738Z,21.46
2022-12-07T14:54:42.541Z,21.47
2022-12-07T14:57:10.369Z,21.48
2022-12-07T14:59:41.749Z,21.48
2022-12-07T15:02:14.006Z,21.48
2022-12-07T15:04:41.260Z,21.48
2022-12-07T15:07:12.166Z,21.48
2022-12-07T15:09:39.025Z,21.47
2022-12-07T15:12:06.425Z,21.49
2022-12-07T15:14:33.335Z,21.47
2022-12-07T15:17:09.009Z,21.46
2022-12-07T15:19:36.916Z,21.46
2022-12-07T15:22:04.008Z,21.45
2022-12-07T15:24:33.698Z,21.44
2022-12-07T15:27:00.517Z,21.44
2022-12-07T15:29:27.571Z,21.42
2022-12-07T15:31:57.036Z,21.40
2022-12-07T15:34:25.547Z,21.40
2022-12-07T15:36:52.438Z,21.34
2022-12-07T15:39:19.381Z,21.28
2022-12-07T15:41:46.205Z,21.25
2022-12-07T15:44:27.695Z,21.21
2022-12-07T15:46:57.774Z,21.17
2022-12-07T15:49:24.900Z,21.11
2022-12-07T15:51:54.926Z,21.05
2022-12-07T15:54:23.101Z,21.02
2022-12-07T15:56:50.771Z,20.99
2022-12-07T15:59:17.957Z,20.97
2022-12-07T16:01:45.230Z,20.95
2022-12-07T16:04:12.496Z,20.93
2022-12-07T16:06:39.647Z,20.90
2022-12-07T16:09:08.862Z,20.89
2022-12-07T16:11:35.757Z,20.86
2022-12-07T16:14:02.772Z,20.84
2022-12-07T16:16:29.842Z,20.83
2022-12-07T16:18:56.867Z,20.80
2022-12-07T16:21:25.684Z,20.78
2022-12-07T16:23:53.397Z,20.76
2022-12-07T16:26:21.808Z,20.74
2022-12-07T16:28:50.828Z,20.72
2022-12-07T16:31:18.809Z,20.69
2022-12-07T16:33:46.106Z,20.67
2022-12-07T16:36:14.496Z,20.65
2022-12-07T16:38:41.183Z,20.65
2022-12-07T16:41:08.366Z,20.65
2022-12-07T16:43:35.529Z,20.65
2022-12-07T16:46:02.888Z,20.66
2022-12-07T16:48:29.542Z,20.67
2022-12-07T16:50:56.148Z,20.67
2022-12-07T16:53:23.597Z,20.69
2022-12-07T16:55:50.967Z,20.71
2022-12-07T16:58:18.161Z,20.72
2022-12-07T17:00:45.869Z,20.73
2022-12-07T17:03:17.619Z,20.76
2022-12-07T17:05:47.585Z,20.77
2022-12-07T17:08:14.670Z,20.79
2022-12-07T17:10:42.824Z,20.80
2022-12-07T17:13:28.164Z,20.82
2022-12-07T17:16:07.077Z,20.84
2022-12-07T17:18:35.559Z,20.86
2022-12-07T17:21:06.336Z,20.89
2022-12-07T17:23:33.588Z,20.91
2022-12-07T17:26:09.157Z,20.92
2022-12-07T17:28:35.978Z,20.94
2022-12-07T17:31:02.646Z,20.95
2022-12-07T17:33:29.325Z,20.95
2022-12-07T17:35:55.926Z,20.97
2022-12-07T17:38:22.638Z,20.98
2022-12-07T17:40:51.231Z,20.99
2022-12-07T17:43:17.988Z,21.00
2022-12-07T17:45:44.675Z,21.00
2022-12-07T17:48:12.298Z,21.00
2022-12-07T17:50:58.444Z,21.01
2022-12-07T17:53:25.053Z,21.01
2022-12-07T17:56:27.091Z,21.02
2022-12-07T17:58:41.502Z,21.01
2022-12-07T18:01:11.540Z,21.00
2022-12-07T18:03:38.286Z,20.99
2022-12-07T18:06:05.094Z,21.00
2022-12-07T18:08:34.822Z,21.01
2022-12-07T18:11:01.637Z,20.98
2022-12-07T18:13:37.656Z,20.98
2022-12-07T18:16:06.125Z,20.97
2022-12-07T18:18:36.018Z,20.97
2022-12-07T18:21:04.411Z,20.96
2022-12-07T18:23:31.708Z,20.96
2022-12-07T18:25:58.329Z,20.96
2022-12-07T18:28:24.900Z,20.96
2022-12-07T18:31:16.409Z,20.96
2022-12-07T18:33:38.495Z,20.98
2022-12-07T18:36:05.293Z,20.98
2022-12-07T18:38:32.355Z,20.99
2022-12-07T18:40:58.973Z,21.00
2022-12-07T18:43:25.886Z,21.01
2022-12-07T18:45:56.048Z,21.03
2022-12-07T18:48:23.267Z,21.03
2022-12-07T18:51:00.169Z,21.04
2022-12-07T18:53:26.995Z,21.05
2022-12-07T18:56:01.199Z,21.05
2022-12-07T18:58:27.941Z,21.07
2022-12-07T19:00:56.099Z,21.08
2022-12-07T19:03:23.166Z,21.09
2022-12-07T19:05:49.956Z,21.11
2022-12-07T19:08:16.719Z,21.12
2022-12-07T19:10:43.453Z,21.15
2022-12-07T19:13:10.192Z,21.17
2022-12-07T19:15:39.866Z,21.18
2022-12-07T19:18:06.528Z,21.21
2022-12-07T19:20:33.173Z,21.23
2022-12-07T19:22:59.825Z,21.24
2022-12-07T19:25:26.460Z,21.26
2022-12-07T19:27:53.068Z,21.27
2022-12-07T19:30:19.817Z,21.30
2022-12-07T19:32:46.425Z,21.31
2022-12-07T19:35:13.108Z,21.32
2022-12-07T19:37:39.851Z,21.33
2022-12-07T19:40:06.853Z,21.33
2022-12-07T19:42:35.905Z,21.33
2022-12-07T19:45:05.629Z,21.34
2022-12-07T19:47:32.931Z,21.35
2022-12-07T19:49:59.926Z,21.37
2022-12-07T19:52:39.085Z,21.36
2022-12-07T19:55:06.527Z,21.36
2022-12-07T19:57:33.883Z,21.36
2022-12-07T20:00:01.096Z,21.36
2022-12-07T20:02:42.398Z,21.36
2022-12-07T20:05:09.999Z,21.35
2022-12-07T20:07:39.474Z,21.33
2022-12-07T20:10:08.188Z,21.34
2022-12-07T20:12:55.710Z,21.33
2022-12-07T20:15:22.370Z,21.32
2022-12-07T20:17:49.021Z,21.32
2022-12-07T20:20:15.670Z,21.33
2022-12-07T20:22:42.419Z,21.33
2022-12-07T20:25:09.334Z,21.34
2022-12-07T20:27:35.965Z,21.35
2022-12-07T20:30:02.582Z,21.37
2022-12-07T20:32:41.786Z,21.38
2022-12-07T20:35:08.630Z,21.40
2022-12-07T20:37:35.274Z,21.40
2022-12-07T20:40:01.924Z,21.41
2022-12-07T20:42:38.834Z,21.42
2022-12-07T20:45:08.586Z,21.43
2022-12-07T20:47:36.586Z,21.45
2022-12-07T20:50:04.364Z,21.45
2022-12-07T20:52:38.794Z,21.46
2022-12-07T20:55:05.881Z,21.46
2022-12-07T20:57:32.756Z,21.47
2022-12-07T20:59:59.385Z,21.47
2022-12-07T21:02:35.053Z,21.45
2022-12-07T21:05:01.932Z,21.45
2022-12-07T21:07:28.855Z,21.43
2022-12-07T21:09:55.489Z,21.35
2022-12-07T21:12:27.800Z,21.35
2022-12-07T21:14:54.497Z,21.34
2022-12-07T21:17:21.152Z,21.35
2022-12-07T21:19:47.951Z,21.34
2022-12-07T21:22:14.585Z,21.37
2022-12-07T21:24:41.983Z,21.37
2022-12-07T21:27:09.137Z,21.38
2022-12-07T21:29:43.770Z,21.39
2022-12-07T21:32:11.804Z,21.41
2022-12-07T21:34:38.478Z,21.43
2022-12-07T21:37:05.163Z,21.45
2022-12-07T21:39:31.828Z,21.46
2022-12-07T21:41:58.400Z,21.47
2022-12-07T21:44:25.021Z,21.48
2022-12-07T21:46:51.764Z,21.49
2022-12-07T21:49:18.520Z,21.50
2022-12-07T21:51:45.194Z,21.51
2022-12-07T21:54:12.792Z,21.52
2022-12-07T21:56:45.376Z,21.52
2022-12-07T21:59:13.654Z,21.51
2022-12-07T22:01:42.713Z,21.53
2022-12-07T22:04:11.390Z,21.52
2022-12-07T22:06:38.694Z,21.53
2022-12-07T22:09:06.036Z,21.54
2022-12-07T22:11:33.114Z,21.54
2022-12-07T22:14:18.163Z,21.55
2022-12-07T22:16:44.986Z,21.56
2022-12-07T22:19:12.495Z,21.58
2022-12-07T22:21:39.172Z,21.61
2022-12-07T22:24:06.760Z,21.62
2022-12-07T22:26:33.969Z,21.63
2022-12-07T22:29:01.249Z,21.64
2022-12-07T22:31:28.597Z,21.66
2022-12-07T22:33:55.339Z,21.67
2022-12-07T22:36:22.060Z,21.69
2022-12-07T22:38:48.722Z,21.70
2022-12-07T22:41:27.926Z,21.74
2022-12-07T22:43:55.151Z,21.73
2022-12-07T22:46:22.081Z,21.72
2022-12-07T22:48:48.811Z,21.71
2022-12-07T22:51:23.033Z,21.72
2022-12-07T22:53:50.108Z,21.71
2022-12-07T22:56:16.912Z,21.71
2022-12-07T22:58:43.589Z,21.71
2022-12-07T23:01:11.343Z,21.71
2022-12-07T23:03:38.076Z,21.72
2022-12-07T23:06:13.089Z,21.70
2022-12-07T23:08:39.746Z,21.70
2022-12-07T23:11:08.981Z,21.71
2022-12-07T23:13:56.325Z,21.78
2022-12-07T23:16:23.030Z,21.94
2022-12-07T23:18:50.027Z,21.99
2022-12-07T23:21:16.609Z,22.04
2022-12-07T23:23:43.419Z,22.06
2022-12-07T23:26:10.527Z,22.09
2022-12-07T23:28:37.803Z,22.10
2022-12-07T23:31:09.478Z,22.12
2022-12-07T23:33:36.183Z,22.13
2022-12-07T23:36:08.879Z,22.14
2022-12-07T23:38:35.462Z,22.15
2022-12-07T23:41:08.873Z,22.16
2022-12-07T23:43:36.377Z,22.17
2022-12-07T23:46:03.348Z,22.18
2022-12-07T23:48:30.055Z,22.21
2022-12-07T23:50:57.684Z,22.20
2022-12-07T23:53:24.994Z,22.21
2022-12-07T23:55:51.602Z,22.21
2022-12-07T23:58:18.347Z,22.20
